Airfield :







YOU CAN JOIN US ON...

 
LOGIN :

Register | Disclaimer

   EN    FR    IT 

 









Legend :    VFR   Marginal VFR   IFR   Intensive IFR   Very Intensive IFR
Visi :
Ceiling :
>= 8 km
>= 3000ft
5 to 8 km
1000 to 3000 ft
1500m to 5 km
500 to 1000 ft
800 to 1500m
200 to 500 ft
< 800m
< 200 ft
Symbols :   Thunderstorms  Fog  Heavy snow  Heavy precipitations  Wind > 20 kt






- Airport Elevation : 11 ft


KGHG - Marshfield Municipal George Harlow Field

CURRENT METAR :
  • 271235Z AUTO 22008G13KT 180V260 10SM CLR 21/17 A3023 RMK AO2

EXPIRED METARs :
  • 271215Z AUTO 23008G15KT 200V280 10SM CLR 20/17 A3023 RMK AO2
  • 271155Z AUTO VRB05G10KT 10SM CLR 19/17 A3023 RMK AO2
  • 271135Z AUTO 22007G12KT 10SM CLR 19/17 A3022 RMK AO2
  • 271115Z AUTO 21009KT 10SM FEW004 18/18 A3022 RMK AO2
  • 271055Z AUTO VRB06KT 10SM BKN004 17/17 A3022 RMK AO2
  • 271035Z AUTO 20006KT 10SM OVC003 17/17 A3021 RMK AO2
  • 271010Z AUTO 21005KT 10SM OVC002 16/16 A3021 RMK AO2
  • 270955Z AUTO 21005KT 10SM OVC002 16/16 A3021 RMK AO2

TAF N/A
KZBW FIR / North America



MET'MAP, your aeronautical weather chart ! - Copyright ORBIFLY December 2007 - Disclaimer

ORBIFLY MET'MAP TEAM :

Programming & Development : Alexandra Zaïnal
Concept & original design : Baudouin d'Aumeries
Assistance for programming : Marc-Olivier Méhu
Technical & hardware support : Manuel Goepfert

Contact : metmap@orbifly.com




SOURCES & CREDITS :

   NOAA